createdAt,value
2022-08-08T00:00:53.363Z,34.11
2022-08-08T00:01:08.544Z,33.47
2022-08-08T00:02:03.411Z,33.47
2022-08-08T00:02:48.978Z,33.79
2022-08-08T00:03:48.714Z,34.43
2022-08-08T00:04:49.000Z,33.14
2022-08-08T00:06:03.392Z,33.79
2022-08-08T00:06:48.665Z,35.08
2022-08-08T00:07:48.602Z,32.82
2022-08-08T00:08:49.119Z,33.79
2022-08-08T00:09:48.590Z,33.47
2022-08-08T00:10:49.749Z,33.47
2022-08-08T00:12:07.428Z,33.79
2022-08-08T00:12:56.866Z,34.11
2022-08-08T00:14:17.528Z,33.79
2022-08-08T00:15:03.403Z,33.47
2022-08-08T00:15:56.999Z,33.47
2022-08-08T00:16:48.499Z,35.40
2022-08-08T00:18:03.789Z,34.76
2022-08-08T00:18:48.481Z,33.47
2022-08-08T00:19:51.525Z,34.43
2022-08-08T00:20:49.535Z,34.43
2022-08-08T00:21:48.434Z,36.37
2022-08-08T00:22:48.468Z,36.69
2022-08-08T00:23:51.312Z,34.76
2022-08-08T00:24:48.385Z,34.43
2022-08-08T00:25:50.970Z,34.76
2022-08-08T00:26:48.389Z,34.11
2022-08-08T00:27:48.378Z,34.43
2022-08-08T00:28:48.375Z,33.79
2022-08-08T00:29:48.380Z,33.14
2022-08-08T00:31:00.283Z,34.43
2022-08-08T00:32:15.639Z,34.11
2022-08-08T00:32:48.310Z,34.43
2022-08-08T00:34:18.035Z,34.43
2022-08-08T00:34:48.255Z,35.40
2022-08-08T00:35:48.848Z,35.08
2022-08-08T00:36:51.640Z,34.11
2022-08-08T00:38:01.616Z,33.47
2022-08-08T00:38:52.107Z,33.79
2022-08-08T00:41:06.863Z,34.11
2022-08-08T00:41:14.778Z,37.98
2022-08-08T00:42:07.890Z,34.43
2022-08-08T00:42:48.203Z,34.11
2022-08-08T00:43:58.894Z,34.11
2022-08-08T00:44:48.150Z,35.08
2022-08-08T00:45:48.209Z,34.76
2022-08-08T00:46:57.991Z,34.43
2022-08-08T00:48:05.261Z,35.08
2022-08-08T00:48:59.236Z,35.08
2022-08-08T00:49:50.556Z,35.08
2022-08-08T00:50:52.334Z,33.79
2022-08-08T00:51:48.046Z,34.11
2022-08-08T00:52:48.740Z,33.79
2022-08-08T00:54:04.184Z,34.76
2022-08-08T00:54:48.009Z,34.11
2022-08-08T00:55:52.838Z,34.11
2022-08-08T00:56:48.021Z,35.72
2022-08-08T00:57:57.079Z,35.72
2022-08-08T00:58:54.689Z,36.04
2022-08-08T00:59:47.947Z,35.40
2022-08-08T01:00:50.678Z,35.40
2022-08-08T01:01:47.975Z,35.08
2022-08-08T01:04:01.089Z,34.43
2022-08-08T01:04:09.052Z,35.40
2022-08-08T01:04:47.846Z,35.40
2022-08-08T01:05:59.213Z,36.69
2022-08-08T01:06:48.127Z,35.40
2022-08-08T01:07:55.255Z,36.37
2022-08-08T01:08:51.909Z,36.69
2022-08-08T01:09:48.639Z,35.72
2022-08-08T01:10:50.991Z,36.04
2022-08-08T01:11:48.437Z,37.01
2022-08-08T01:12:47.756Z,35.08
2022-08-08T01:13:52.867Z,37.66
2022-08-08T01:14:54.028Z,34.11
2022-08-08T01:15:54.165Z,34.43
2022-08-08T01:16:47.713Z,35.40
2022-08-08T01:17:53.897Z,34.76
2022-08-08T01:18:53.655Z,35.40
2022-08-08T01:20:02.406Z,35.08
2022-08-08T01:20:47.670Z,35.40
2022-08-08T01:22:12.972Z,36.69
2022-08-08T01:22:47.629Z,37.33
2022-08-08T01:24:03.238Z,37.01
2022-08-08T01:24:50.781Z,36.69
2022-08-08T01:25:47.608Z,36.69
2022-08-08T01:26:48.159Z,35.08
2022-08-08T01:27:47.570Z,38.95
2022-08-08T01:28:47.548Z,34.76
2022-08-08T01:29:59.337Z,33.47
2022-08-08T01:30:47.536Z,37.01
2022-08-08T01:32:13.483Z,36.37
2022-08-08T01:32:47.503Z,37.01
2022-08-08T01:34:00.059Z,38.95
2022-08-08T01:34:47.451Z,36.37
2022-08-08T01:35:47.443Z,36.69
2022-08-08T01:36:48.554Z,36.69
2022-08-08T01:37:57.224Z,37.01
2022-08-08T01:38:47.434Z,35.72
2022-08-08T01:39:47.455Z,37.66
2022-08-08T01:40:47.403Z,39.59
2022-08-08T01:41:47.395Z,35.08
2022-08-08T01:42:47.387Z,36.04
2022-08-08T01:43:47.360Z,35.72
2022-08-08T01:44:50.387Z,37.98
2022-08-08T01:45:54.303Z,36.04
2022-08-08T01:46:52.179Z,37.33
2022-08-08T01:48:16.315Z,38.62
2022-08-08T01:48:48.199Z,41.52
2022-08-08T01:49:47.279Z,39.27
2022-08-08T01:50:48.977Z,36.37
2022-08-08T01:52:04.943Z,37.33
2022-08-08T01:54:20.141Z,36.37
2022-08-08T01:56:27.061Z,38.62
2022-08-08T01:56:37.384Z,36.69
2022-08-08T01:56:47.302Z,37.01
2022-08-08T01:58:10.959Z,37.33
2022-08-08T01:58:46.563Z,38.30
2022-08-08T02:00:01.566Z,37.33
2022-08-08T02:00:48.567Z,37.66
2022-08-08T02:01:54.990Z,38.95
2022-08-08T02:02:45.389Z,37.33
2022-08-08T02:03:55.379Z,37.98
2022-08-08T02:04:45.092Z,37.66
2022-08-08T02:05:55.974Z,37.01
2022-08-08T02:06:45.019Z,37.33
2022-08-08T02:07:48.906Z,37.98
2022-08-08T02:08:47.053Z,37.66
2022-08-08T02:10:04.164Z,38.30
2022-08-08T02:10:46.019Z,38.30
2022-08-08T02:11:52.680Z,39.27
2022-08-08T02:12:44.962Z,38.30
2022-08-08T02:13:53.623Z,52.80
2022-08-08T02:14:49.899Z,37.98
2022-08-08T02:15:44.930Z,38.62
2022-08-08T02:16:44.910Z,37.01
2022-08-08T02:17:44.871Z,37.98
2022-08-08T02:18:44.873Z,38.62
2022-08-08T02:20:07.257Z,38.95
2022-08-08T02:21:01.311Z,38.62
2022-08-08T02:21:44.819Z,39.27
2022-08-08T02:22:52.490Z,38.30
2022-08-08T02:23:44.806Z,41.20
2022-08-08T02:24:44.770Z,39.91
2022-08-08T02:25:48.783Z,39.27
2022-08-08T02:26:44.755Z,39.27
2022-08-08T02:27:44.724Z,39.27
2022-08-08T02:28:48.182Z,38.95
2022-08-08T02:29:51.643Z,38.62
2022-08-08T02:30:50.194Z,38.62
2022-08-08T02:32:01.257Z,39.59
2022-08-08T02:32:44.731Z,38.95
2022-08-08T02:34:07.993Z,40.88
2022-08-08T02:35:06.298Z,39.59
2022-08-08T02:36:04.525Z,40.23
2022-08-08T02:36:44.631Z,40.56
2022-08-08T02:37:53.077Z,38.95
2022-08-08T02:38:44.769Z,38.95
2022-08-08T02:39:58.365Z,39.59
2022-08-08T02:40:45.007Z,38.95
2022-08-08T02:42:04.424Z,39.27
2022-08-08T02:42:44.566Z,37.01
2022-08-08T02:44:37.592Z,37.66
2022-08-08T02:45:01.017Z,38.62
2022-08-08T02:45:54.114Z,36.37
2022-08-08T02:46:44.518Z,37.98
2022-08-08T02:47:46.968Z,37.98
2022-08-08T02:48:45.316Z,37.98
2022-08-08T02:49:47.467Z,37.66
2022-08-08T02:50:52.872Z,38.30
2022-08-08T02:51:55.550Z,37.01
2022-08-08T02:52:50.688Z,38.62
2022-08-08T02:53:44.414Z,38.62
2022-08-08T02:54:44.390Z,38.30
2022-08-08T02:55:44.369Z,39.91
2022-08-08T02:56:44.343Z,37.98
2022-08-08T02:57:45.569Z,39.27
2022-08-08T02:58:44.329Z,41.85
2022-08-08T03:00:01.754Z,38.95
2022-08-08T03:00:50.617Z,39.27
2022-08-08T03:01:50.255Z,38.30
2022-08-08T03:02:44.263Z,39.27
2022-08-08T03:03:46.276Z,41.20
2022-08-08T03:05:11.000Z,39.91
2022-08-08T03:05:46.392Z,39.91
2022-08-08T03:06:44.219Z,39.59
2022-08-08T03:07:57.991Z,37.98
2022-08-08T03:08:44.202Z,38.62
2022-08-08T03:09:44.181Z,37.98
2022-08-08T03:10:53.344Z,39.59
2022-08-08T03:12:01.250Z,41.52
2022-08-08T03:13:01.515Z,40.23
2022-08-08T03:15:59.339Z,40.23
2022-08-08T03:16:09.626Z,39.59
2022-08-08T03:16:34.264Z,38.62
2022-08-08T03:17:19.956Z,39.91
2022-08-08T03:18:17.053Z,39.59
2022-08-08T03:19:19.847Z,39.59
2022-08-08T03:20:17.043Z,40.23
2022-08-08T03:21:17.015Z,38.62
2022-08-08T03:22:50.936Z,39.59
2022-08-08T03:23:17.678Z,39.91
2022-08-08T03:24:16.983Z,56.99
2022-08-08T03:25:18.808Z,45.71
2022-08-08T03:26:16.954Z,46.68
2022-08-08T03:27:16.962Z,46.04
2022-08-08T03:28:19.153Z,47.00
2022-08-08T03:29:27.065Z,40.56
2022-08-08T03:30:19.260Z,46.36
2022-08-08T03:31:25.305Z,45.71
2022-08-08T03:32:16.867Z,47.97
2022-08-08T03:33:56.354Z,40.23
2022-08-08T03:34:16.861Z,39.27
2022-08-08T03:35:16.867Z,39.59
2022-08-08T03:36:20.013Z,46.36
2022-08-08T03:38:00.009Z,41.20
2022-08-08T03:39:14.360Z,42.17
2022-08-08T03:39:20.509Z,41.20
2022-08-08T03:40:29.673Z,41.52
2022-08-08T03:42:12.095Z,41.20
2022-08-08T03:42:33.488Z,41.20
2022-08-08T03:43:19.995Z,40.56
2022-08-08T03:44:16.702Z,46.36
2022-08-08T03:46:05.745Z,41.52
2022-08-08T03:46:16.690Z,42.49
2022-08-08T03:47:20.464Z,45.71
2022-08-08T03:48:21.053Z,41.20
2022-08-08T03:49:57.803Z,45.39
2022-08-08T03:50:20.140Z,42.17
2022-08-08T03:51:16.653Z,41.20
2022-08-08T03:52:16.611Z,40.56
2022-08-08T03:53:24.025Z,42.17
2022-08-08T03:54:41.236Z,44.42
2022-08-08T03:55:20.204Z,41.52
2022-08-08T03:56:31.614Z,41.52
2022-08-08T03:58:30.415Z,41.85
2022-08-08T03:58:38.553Z,43.13
2022-08-08T03:59:22.532Z,40.56
2022-08-08T04:00:18.132Z,41.20
2022-08-08T04:01:23.080Z,41.52
2022-08-08T04:02:32.980Z,45.39
2022-08-08T04:03:17.092Z,42.17
2022-08-08T04:04:16.521Z,43.46
2022-08-08T04:05:19.156Z,39.59
2022-08-08T04:06:16.421Z,41.20
2022-08-08T04:07:16.682Z,46.36
2022-08-08T04:08:23.072Z,40.56
2022-08-08T04:09:16.403Z,41.20
2022-08-08T04:10:16.376Z,40.56
2022-08-08T04:11:17.457Z,39.91
2022-08-08T04:12:16.373Z,41.52
2022-08-08T04:13:18.655Z,41.85
2022-08-08T04:14:33.317Z,42.49
2022-08-08T04:15:16.305Z,43.46
2022-08-08T04:16:18.511Z,40.88
2022-08-08T04:17:45.638Z,42.81
2022-08-08T04:18:17.191Z,40.56
2022-08-08T04:19:23.757Z,41.85
2022-08-08T04:20:16.246Z,40.56
2022-08-08T04:21:22.915Z,37.66
2022-08-08T04:22:16.619Z,39.59
2022-08-08T04:23:16.218Z,40.56
2022-08-08T04:24:28.181Z,40.23
2022-08-08T04:25:17.227Z,41.52
2022-08-08T04:26:16.179Z,40.88
2022-08-08T04:27:42.755Z,39.91
2022-08-08T04:28:40.412Z,40.23
2022-08-08T04:29:16.448Z,45.07
2022-08-08T04:30:18.055Z,38.95
2022-08-08T04:31:57.171Z,40.23
2022-08-08T04:32:30.888Z,38.30
2022-08-08T04:33:16.089Z,40.23
2022-08-08T04:34:16.051Z,41.20
2022-08-08T04:35:16.036Z,44.75
2022-08-08T04:36:16.032Z,40.56
2022-08-08T04:37:16.025Z,40.56
2022-08-08T04:38:21.167Z,39.59
2022-08-08T04:40:05.926Z,39.59
2022-08-08T04:40:17.742Z,40.56
2022-08-08T04:41:17.815Z,37.98
2022-08-08T04:42:17.168Z,42.49
2022-08-08T04:43:15.965Z,41.20
2022-08-08T04:44:15.905Z,39.59
2022-08-08T04:45:15.900Z,39.59
2022-08-08T04:46:15.902Z,41.52
2022-08-08T04:47:16.573Z,41.85
2022-08-08T04:48:15.871Z,40.56
2022-08-08T04:49:15.863Z,39.59
2022-08-08T04:50:25.276Z,43.13
2022-08-08T04:51:17.570Z,42.49
2022-08-08T04:52:15.822Z,42.49
2022-08-08T04:54:37.202Z,42.17
2022-08-08T04:54:44.984Z,41.20
2022-08-08T04:55:15.790Z,42.17
2022-08-08T04:56:15.744Z,38.62
2022-08-08T04:57:15.756Z,38.95
2022-08-08T04:58:17.552Z,37.66
2022-08-08T04:59:15.752Z,38.30
2022-08-08T05:00:19.453Z,37.66
2022-08-08T05:01:15.716Z,37.66
2022-08-08T05:02:15.729Z,37.66
2022-08-08T05:03:19.083Z,37.98
2022-08-08T05:04:15.647Z,45.71
2022-08-08T05:05:19.975Z,39.27
2022-08-08T05:06:18.405Z,41.20
2022-08-08T05:07:15.608Z,37.98
2022-08-08T05:08:15.581Z,33.47
2022-08-08T05:09:15.943Z,36.69
2022-08-08T05:10:15.578Z,36.04
2022-08-08T05:11:23.979Z,37.01
2022-08-08T05:12:34.926Z,37.66
2022-08-08T05:13:17.838Z,41.20
2022-08-08T05:14:15.505Z,38.30
2022-08-08T05:15:15.528Z,37.66
2022-08-08T05:16:52.271Z,36.04
2022-08-08T05:17:15.477Z,44.10
2022-08-08T05:18:15.465Z,39.59
2022-08-08T05:20:04.415Z,36.69
2022-08-08T05:20:19.127Z,37.01
2022-08-08T05:21:15.416Z,37.66
2022-08-08T05:22:27.618Z,37.98
2022-08-08T05:23:15.395Z,36.04
2022-08-08T05:24:15.394Z,36.04
2022-08-08T05:25:15.369Z,38.30
2022-08-08T05:26:15.368Z,37.66
2022-08-08T05:27:15.365Z,36.04
2022-08-08T05:28:15.329Z,36.37
2022-08-08T05:29:15.324Z,35.40
2022-08-08T05:30:15.337Z,34.43
2022-08-08T05:32:02.503Z,36.69
2022-08-08T05:32:15.296Z,36.37
2022-08-08T05:33:16.823Z,35.72
2022-08-08T05:34:15.276Z,37.66
2022-08-08T05:35:15.247Z,37.01
2022-08-08T05:36:25.452Z,40.56
2022-08-08T05:37:17.283Z,36.04
2022-08-08T05:38:30.775Z,36.04
2022-08-08T05:39:15.234Z,48.61
2022-08-08T05:40:16.501Z,35.08
2022-08-08T05:41:15.165Z,36.04
2022-08-08T05:42:15.165Z,46.68
2022-08-08T05:43:39.920Z,37.33
2022-08-08T05:44:15.138Z,36.69
2022-08-08T05:45:25.566Z,37.33
2022-08-08T05:46:15.091Z,36.04
2022-08-08T05:47:15.075Z,37.33
2022-08-08T05:48:15.109Z,36.37
2022-08-08T05:49:15.705Z,35.40
2022-08-08T05:50:15.050Z,39.91
2022-08-08T05:51:16.188Z,37.66
2022-08-08T05:52:15.033Z,36.37
2022-08-08T05:53:53.660Z,37.66
2022-08-08T05:54:28.245Z,37.01
2022-08-08T05:55:14.972Z,36.37
2022-08-08T05:56:15.585Z,36.04
2022-08-08T05:57:15.235Z,36.69
2022-08-08T05:58:17.941Z,37.33
2022-08-08T05:59:14.937Z,37.98
2022-08-08T06:00:22.450Z,36.04
2022-08-08T06:01:14.895Z,37.33
2022-08-08T06:02:14.883Z,36.04
2022-08-08T06:03:24.764Z,37.66
2022-08-08T06:04:23.496Z,36.69
2022-08-08T06:05:34.169Z,36.37
2022-08-08T06:06:17.965Z,49.90
2022-08-08T06:07:14.815Z,37.66
2022-08-08T06:08:33.458Z,38.95
2022-08-08T06:09:41.908Z,46.36
2022-08-08T06:10:24.734Z,38.62
2022-08-08T06:11:16.709Z,37.33
2022-08-08T06:12:18.606Z,35.72
2022-08-08T06:13:15.902Z,35.72
2022-08-08T06:14:17.801Z,36.69
2022-08-08T06:15:16.121Z,40.23
2022-08-08T06:16:14.697Z,37.98
2022-08-08T06:17:19.220Z,36.04
2022-08-08T06:18:20.368Z,37.33
2022-08-08T06:19:16.564Z,34.76
2022-08-08T06:20:16.329Z,35.40
2022-08-08T06:21:28.627Z,41.52
2022-08-08T06:23:14.610Z,36.37
2022-08-08T06:24:22.992Z,35.40
2022-08-08T06:25:14.608Z,38.62
2022-08-08T06:26:38.226Z,34.43
2022-08-08T06:27:14.573Z,37.01
2022-08-08T06:28:14.538Z,38.30
2022-08-08T06:29:49.362Z,40.23
2022-08-08T06:30:19.906Z,32.50
2022-08-08T06:31:15.448Z,34.43
2022-08-08T06:32:15.208Z,47.65
2022-08-08T06:33:15.229Z,34.43
2022-08-08T06:34:25.760Z,36.04
2022-08-08T06:36:08.636Z,33.79
2022-08-08T06:36:14.495Z,32.50
2022-08-08T06:37:25.195Z,47.32
2022-08-08T06:38:14.968Z,31.53
2022-08-08T06:39:14.463Z,47.65
2022-08-08T06:40:16.489Z,35.40
2022-08-08T06:41:15.217Z,33.79
2022-08-08T06:42:14.369Z,42.17
2022-08-08T06:43:14.388Z,36.69
2022-08-08T06:44:18.475Z,36.69
2022-08-08T06:45:14.333Z,38.95
2022-08-08T06:46:14.332Z,38.95
2022-08-08T06:47:14.308Z,37.01
2022-08-08T06:48:14.298Z,39.27
2022-08-08T06:49:14.346Z,33.14
2022-08-08T06:50:17.512Z,34.43
2022-08-08T06:51:14.252Z,49.26
2022-08-08T06:52:15.894Z,38.62
2022-08-08T06:53:20.171Z,33.79
2022-08-08T06:54:14.216Z,33.47
2022-08-08T06:55:14.202Z,33.47
2022-08-08T06:56:16.526Z,35.72
2022-08-08T06:57:22.835Z,36.04
2022-08-08T06:58:14.175Z,32.18
2022-08-08T06:59:14.144Z,32.82
2022-08-08T07:00:14.146Z,35.40
2022-08-08T07:02:17.549Z,34.11
2022-08-08T07:02:32.429Z,36.04
2022-08-08T07:03:19.521Z,33.14
2022-08-08T07:04:39.645Z,32.82
2022-08-08T07:05:20.331Z,35.40
2022-08-08T07:06:14.059Z,36.04
2022-08-08T07:07:14.041Z,35.72
2022-08-08T07:08:16.493Z,33.47
2022-08-08T07:09:15.358Z,34.11
2022-08-08T07:10:14.007Z,33.79
2022-08-08T07:11:22.452Z,34.43
2022-08-08T07:12:13.975Z,42.81
2022-08-08T07:13:13.983Z,35.08
2022-08-08T07:14:13.993Z,34.43
2022-08-08T07:15:23.474Z,33.14
2022-08-08T07:16:13.934Z,33.47
2022-08-08T07:17:14.342Z,36.04
2022-08-08T07:18:35.954Z,37.01
2022-08-08T07:19:13.893Z,33.14
2022-08-08T07:20:13.868Z,34.43
2022-08-08T07:21:19.126Z,34.76
2022-08-08T07:22:18.796Z,35.08
2022-08-08T07:23:13.890Z,33.14
2022-08-08T07:24:13.893Z,33.14
2022-08-08T07:25:14.422Z,33.79
2022-08-08T07:26:13.792Z,32.18
2022-08-08T07:27:16.415Z,33.47
2022-08-08T07:28:13.912Z,32.50
2022-08-08T07:29:58.869Z,31.53
2022-08-08T07:30:19.646Z,37.66
2022-08-08T07:31:13.861Z,39.59
2022-08-08T07:32:15.782Z,40.88
2022-08-08T07:33:17.434Z,35.40
2022-08-08T07:34:19.991Z,32.82
2022-08-08T07:35:14.060Z,36.69
2022-08-08T07:36:15.090Z,33.14
2022-08-08T07:37:13.720Z,34.11
2022-08-08T07:38:18.348Z,33.47
2022-08-08T07:39:13.654Z,32.82
2022-08-08T07:40:29.148Z,32.50
2022-08-08T07:41:23.579Z,33.14
2022-08-08T07:42:13.605Z,32.50
2022-08-08T07:43:13.601Z,32.18
2022-08-08T07:44:33.521Z,32.18
2022-08-08T07:45:13.539Z,32.50
2022-08-08T07:46:23.755Z,32.50
2022-08-08T07:47:13.525Z,33.14
2022-08-08T07:48:13.507Z,35.08
2022-08-08T07:49:13.474Z,35.40
2022-08-08T07:50:13.482Z,31.53
2022-08-08T07:51:23.402Z,34.11
2022-08-08T07:52:22.928Z,35.72
2022-08-08T07:53:13.460Z,40.88
2022-08-08T07:54:24.102Z,32.50
2022-08-08T07:55:13.408Z,34.11
2022-08-08T07:56:13.394Z,34.43
2022-08-08T07:57:17.069Z,35.08
2022-08-08T07:58:13.368Z,35.72
2022-08-08T07:59:14.292Z,35.72
2022-08-08T08:00:16.483Z,35.08
2022-08-08T08:01:13.382Z,35.08
2022-08-08T08:02:34.428Z,35.08
2022-08-08T08:03:23.339Z,37.66
2022-08-08T08:04:13.567Z,37.01
2022-08-08T08:05:14.486Z,35.72
2022-08-08T08:06:14.131Z,41.52
2022-08-08T08:07:13.227Z,37.01
2022-08-08T08:08:13.252Z,39.91
2022-08-08T08:09:13.201Z,39.91
2022-08-08T08:10:13.275Z,39.59
2022-08-08T08:11:18.467Z,37.33
2022-08-08T08:12:35.250Z,37.98
2022-08-08T08:13:17.891Z,38.95
2022-08-08T08:14:15.257Z,38.30
2022-08-08T08:15:15.254Z,37.66
2022-08-08T08:16:13.135Z,37.66
2022-08-08T08:17:14.019Z,38.30
2022-08-08T08:18:14.208Z,35.40
2022-08-08T08:19:15.007Z,35.08
2022-08-08T08:20:13.092Z,35.08
2022-08-08T08:21:14.512Z,35.08
2022-08-08T08:22:14.945Z,36.69
2022-08-08T08:23:13.651Z,37.01
2022-08-08T08:24:13.014Z,46.68
2022-08-08T08:25:13.036Z,39.59
2022-08-08T08:26:13.012Z,38.62
2022-08-08T08:27:12.999Z,40.56
2022-08-08T08:28:21.448Z,38.95
2022-08-08T08:29:13.834Z,37.33
2022-08-08T08:30:12.968Z,36.69
2022-08-08T08:31:12.956Z,41.20
2022-08-08T08:32:24.051Z,38.95
2022-08-08T08:33:12.896Z,37.33
2022-08-08T08:34:12.936Z,39.59
2022-08-08T08:35:13.295Z,37.66
2022-08-08T08:36:20.329Z,38.62
2022-08-08T08:37:15.580Z,36.37
2022-08-08T08:38:17.950Z,37.98
2022-08-08T08:39:17.322Z,38.95
2022-08-08T08:40:13.136Z,40.23
2022-08-08T08:41:13.219Z,38.30
2022-08-08T08:42:13.378Z,39.59
2022-08-08T08:43:15.428Z,37.66
2022-08-08T08:44:14.049Z,38.95
2022-08-08T08:45:22.684Z,40.56
2022-08-08T08:46:17.532Z,42.81
2022-08-08T08:47:12.764Z,38.95
2022-08-08T08:48:19.305Z,46.36
2022-08-08T08:49:12.727Z,39.59
2022-08-08T08:50:17.318Z,41.52
2022-08-08T08:51:12.691Z,40.88
2022-08-08T08:52:12.717Z,43.46
2022-08-08T08:53:27.872Z,41.20
2022-08-08T08:54:12.693Z,45.39
2022-08-08T08:55:12.725Z,41.20
2022-08-08T08:56:12.625Z,41.20
2022-08-08T08:57:17.322Z,40.88
2022-08-08T08:58:12.653Z,40.23
2022-08-08T08:59:15.696Z,41.85
2022-08-08T09:00:17.133Z,40.56
2022-08-08T09:01:13.393Z,42.81
2022-08-08T09:02:12.568Z,41.52
2022-08-08T09:03:12.587Z,41.52
2022-08-08T09:04:32.049Z,44.75
2022-08-08T09:05:13.985Z,41.85
2022-08-08T09:06:26.828Z,43.13
2022-08-08T09:07:12.762Z,42.49
2022-08-08T09:08:20.595Z,42.81
2022-08-08T09:09:26.634Z,42.81
2022-08-08T09:10:17.023Z,42.49
2022-08-08T09:11:12.498Z,42.17
2022-08-08T09:12:12.419Z,41.85
2022-08-08T09:13:12.402Z,42.49
2022-08-08T09:14:12.417Z,42.81
2022-08-08T09:15:12.388Z,42.49
2022-08-08T09:16:12.415Z,38.62
2022-08-08T09:17:17.929Z,40.88
2022-08-08T09:18:13.094Z,43.46
2022-08-08T09:19:12.381Z,41.85
2022-08-08T09:21:58.840Z,43.13
2022-08-08T09:22:07.754Z,41.20
2022-08-08T09:22:13.199Z,42.81
2022-08-08T09:23:17.508Z,41.52
2022-08-08T09:24:13.469Z,41.85
2022-08-08T09:25:13.150Z,42.17
2022-08-08T09:26:13.162Z,41.85
2022-08-08T09:27:20.297Z,41.52
2022-08-08T09:28:13.148Z,41.20
2022-08-08T09:29:13.091Z,41.20
2022-08-08T09:30:14.704Z,41.52
2022-08-08T09:31:13.356Z,41.85
2022-08-08T09:32:14.340Z,42.49
2022-08-08T09:34:14.911Z,42.17
2022-08-08T09:34:36.448Z,43.78
2022-08-08T09:35:16.064Z,42.81
2022-08-08T09:36:13.072Z,43.78
2022-08-08T09:37:59.074Z,43.46
2022-08-08T09:38:17.984Z,43.78
2022-08-08T09:39:19.060Z,44.10
2022-08-08T09:40:13.041Z,43.78
2022-08-08T09:41:12.996Z,44.75
2022-08-08T09:42:21.361Z,45.07
2022-08-08T09:43:16.661Z,45.07
2022-08-08T09:44:18.804Z,44.75
2022-08-08T09:45:20.708Z,46.04
2022-08-08T09:46:16.878Z,44.42
2022-08-08T09:47:25.948Z,43.46
2022-08-08T09:48:21.868Z,42.49
2022-08-08T09:49:41.266Z,42.49
2022-08-08T09:50:14.044Z,43.13
2022-08-08T09:51:12.869Z,40.56
2022-08-08T09:52:16.066Z,44.75
2022-08-08T09:53:23.625Z,43.78
2022-08-08T09:54:19.770Z,42.17
2022-08-08T09:55:17.565Z,41.85
2022-08-08T09:56:21.728Z,42.81
2022-08-08T09:57:17.061Z,42.81
2022-08-08T09:58:16.518Z,42.49
2022-08-08T09:59:40.337Z,42.81
2022-08-08T10:01:14.472Z,42.81
2022-08-08T10:02:14.707Z,43.78
2022-08-08T10:03:12.730Z,43.78
2022-08-08T10:04:12.716Z,44.75
2022-08-08T10:05:15.110Z,44.42
2022-08-08T10:06:12.678Z,44.10
2022-08-08T10:07:13.935Z,44.75
2022-08-08T10:08:12.650Z,43.13
2022-08-08T10:09:13.386Z,40.56
2022-08-08T10:10:12.688Z,40.23
2022-08-08T10:12:28.083Z,40.56
2022-08-08T10:12:53.334Z,39.59
2022-08-08T10:13:14.818Z,39.91
2022-08-08T10:14:28.159Z,41.52
2022-08-08T10:15:17.511Z,41.85
2022-08-08T10:16:12.598Z,40.56
2022-08-08T10:17:56.062Z,46.36
2022-08-08T10:18:17.624Z,40.23
2022-08-08T10:19:12.562Z,38.62
2022-08-08T10:20:12.588Z,38.95
2022-08-08T10:21:22.585Z,38.62
2022-08-08T10:22:12.519Z,39.59
2022-08-08T10:23:13.195Z,40.56
2022-08-08T10:24:29.697Z,37.98
2022-08-08T10:25:15.817Z,38.30
2022-08-08T10:26:29.754Z,37.66
2022-08-08T10:27:13.090Z,35.40
2022-08-08T10:28:14.975Z,36.37
2022-08-08T10:29:12.431Z,36.69
2022-08-08T10:30:16.208Z,37.01
2022-08-08T10:31:12.403Z,37.33
2022-08-08T10:32:12.402Z,37.66
2022-08-08T10:33:12.489Z,38.62
2022-08-08T10:34:21.018Z,41.85
2022-08-08T10:36:06.279Z,39.91
2022-08-08T10:36:22.382Z,40.56
2022-08-08T10:37:12.357Z,39.91
2022-08-08T10:38:13.741Z,39.27
2022-08-08T10:39:14.057Z,39.59
2022-08-08T10:40:12.492Z,39.59
2022-08-08T10:41:12.288Z,40.56
2022-08-08T10:42:14.897Z,41.52
2022-08-08T10:43:12.301Z,39.27
2022-08-08T10:44:12.278Z,49.26
2022-08-08T10:45:12.273Z,43.78
2022-08-08T10:46:29.437Z,47.00
2022-08-08T10:47:12.250Z,42.17
2022-08-08T10:48:12.243Z,43.78
2022-08-08T10:49:12.223Z,43.13
2022-08-08T10:50:15.746Z,45.39
2022-08-08T10:51:12.211Z,42.81
2022-08-08T10:52:12.178Z,46.04
2022-08-08T10:53:12.614Z,40.88
2022-08-08T10:54:12.174Z,44.42
2022-08-08T10:55:12.143Z,40.88
2022-08-08T10:56:27.852Z,43.13
2022-08-08T10:57:12.140Z,44.75
2022-08-08T10:58:12.131Z,42.49
2022-08-08T10:59:14.645Z,42.81
2022-08-08T11:00:12.270Z,42.81
2022-08-08T11:01:12.599Z,39.91
2022-08-08T11:02:12.124Z,45.07
2022-08-08T11:03:12.065Z,45.07
2022-08-08T11:04:12.157Z,47.65
2022-08-08T11:05:14.914Z,46.36
2022-08-08T11:06:12.575Z,46.36
2022-08-08T11:07:40.702Z,41.20
2022-08-08T11:08:53.545Z,47.00
2022-08-08T11:09:19.223Z,41.20
2022-08-08T11:10:11.989Z,47.65
2022-08-08T11:12:00.087Z,46.68
2022-08-08T11:12:13.601Z,44.75
2022-08-08T11:13:29.511Z,44.10
2022-08-08T11:14:12.455Z,46.36
2022-08-08T11:15:11.929Z,41.52
2022-08-08T11:16:11.886Z,45.71
2022-08-08T11:17:15.720Z,49.58
2022-08-08T11:18:11.864Z,47.00
2022-08-08T11:19:11.861Z,45.07
2022-08-08T11:20:12.773Z,52.48
2022-08-08T11:21:20.436Z,44.10
2022-08-08T11:22:11.827Z,51.51
2022-08-08T11:23:11.831Z,48.61
2022-08-08T11:24:11.791Z,43.78
2022-08-08T11:25:13.768Z,46.36
2022-08-08T11:26:11.771Z,43.78
2022-08-08T11:27:19.906Z,41.52
2022-08-08T11:28:11.773Z,43.46
2022-08-08T11:29:11.743Z,42.49
2022-08-08T11:30:20.017Z,45.07
2022-08-08T11:31:11.738Z,47.97
2022-08-08T11:32:13.334Z,45.71
2022-08-08T11:33:12.429Z,45.71
2022-08-08T11:34:24.417Z,38.62
2022-08-08T11:35:29.413Z,39.59
2022-08-08T11:36:13.419Z,38.95
2022-08-08T11:37:15.137Z,38.62
2022-08-08T11:38:39.130Z,40.88
2022-08-08T11:39:13.003Z,46.04
2022-08-08T11:40:11.650Z,38.95
2022-08-08T11:41:11.624Z,47.00
2022-08-08T11:42:11.606Z,42.81
2022-08-08T11:43:11.603Z,48.94
2022-08-08T11:44:11.587Z,46.36
2022-08-08T11:45:11.571Z,44.42
2022-08-08T11:46:14.305Z,47.32
2022-08-08T11:47:13.012Z,47.97
2022-08-08T11:48:11.547Z,43.78
2022-08-08T11:49:11.539Z,43.46
2022-08-08T11:50:11.515Z,44.42
2022-08-08T11:51:30.487Z,46.68
2022-08-08T11:52:18.734Z,44.42
2022-08-08T11:53:11.468Z,38.62
2022-08-08T11:54:31.903Z,41.20
2022-08-08T11:55:11.478Z,48.94
2022-08-08T11:56:11.442Z,43.46
2022-08-08T11:57:16.646Z,45.71
2022-08-08T11:58:14.839Z,41.52
2022-08-08T11:59:11.410Z,44.42
2022-08-08T12:00:11.401Z,44.75
2022-08-08T12:01:16.246Z,44.42
2022-08-08T12:02:31.033Z,45.71
2022-08-08T12:03:11.419Z,42.49
2022-08-08T12:04:11.337Z,50.22
2022-08-08T12:05:12.204Z,44.42
2022-08-08T12:06:11.327Z,42.49
2022-08-08T12:07:16.627Z,42.81
2022-08-08T12:08:11.428Z,43.78
2022-08-08T12:09:16.894Z,49.58
2022-08-08T12:10:11.356Z,39.59
2022-08-08T12:11:11.273Z,56.03
2022-08-08T12:12:11.245Z,41.85
2022-08-08T12:13:11.266Z,32.50
2022-08-08T12:14:11.871Z,41.52
2022-08-08T12:15:11.240Z,40.56
2022-08-08T12:16:11.254Z,36.37
2022-08-08T12:17:11.248Z,45.07
2022-08-08T12:18:11.262Z,38.62
2022-08-08T12:19:11.228Z,41.85
2022-08-08T12:20:14.716Z,43.78
2022-08-08T12:21:11.357Z,38.62
2022-08-08T12:22:13.280Z,37.66
2022-08-08T12:23:14.053Z,45.07
2022-08-08T12:24:11.192Z,44.75
2022-08-08T12:25:11.143Z,44.10
2022-08-08T12:26:16.768Z,43.78
2022-08-08T12:27:11.122Z,46.68
2022-08-08T12:28:15.272Z,42.17
2022-08-08T12:29:11.063Z,40.56
2022-08-08T12:30:18.382Z,41.52
2022-08-08T12:31:11.078Z,39.91
2022-08-08T12:32:13.574Z,38.62
2022-08-08T12:33:11.029Z,45.07
2022-08-08T12:34:11.006Z,38.95
2022-08-08T12:35:18.262Z,42.49
2022-08-08T12:36:10.990Z,41.85
2022-08-08T12:37:11.371Z,47.00
2022-08-08T12:38:10.958Z,43.46
2022-08-08T12:39:11.017Z,46.36
2022-08-08T12:40:11.018Z,39.59
2022-08-08T12:41:33.839Z,39.91
2022-08-08T12:42:20.775Z,38.62
2022-08-08T12:43:10.927Z,47.32
2022-08-08T12:44:10.908Z,47.65
2022-08-08T12:45:54.612Z,46.36
2022-08-08T12:46:10.901Z,43.13
2022-08-08T12:47:13.118Z,42.81
2022-08-08T12:48:37.467Z,42.49
2022-08-08T12:49:43.635Z,38.30
2022-08-08T12:50:10.837Z,49.26
2022-08-08T12:51:11.723Z,40.23
2022-08-08T12:52:14.272Z,40.56
2022-08-08T12:53:10.910Z,44.10
2022-08-08T12:54:24.312Z,44.75
2022-08-08T12:55:14.366Z,46.36